createdAt,value
2023-01-31T00:00:22.302Z,90.60
2023-01-31T00:01:22.282Z,90.77
2023-01-31T00:02:22.340Z,91.01
2023-01-31T00:03:22.289Z,90.77
2023-01-31T00:04:22.249Z,90.87
2023-01-31T00:05:22.595Z,90.66
2023-01-31T00:06:22.226Z,91.07
2023-01-31T00:07:22.224Z,90.97
2023-01-31T00:08:22.197Z,90.97
2023-01-31T00:09:22.237Z,90.77
2023-01-31T00:10:22.183Z,91.17
2023-01-31T00:11:22.162Z,90.25
2023-01-31T00:12:22.168Z,90.45
2023-01-31T00:13:22.143Z,90.35
2023-01-31T00:14:22.136Z,90.25
2023-01-31T00:15:22.193Z,89.77
2023-01-31T00:16:22.113Z,90.39
2023-01-31T00:17:22.098Z,90.39
2023-01-31T00:18:22.087Z,90.50
2023-01-31T00:19:22.101Z,90.29
2023-01-31T00:20:22.078Z,90.29
2023-01-31T00:21:22.112Z,90.50
2023-01-31T00:22:22.061Z,90.19
2023-01-31T00:23:22.031Z,90.19
2023-01-31T00:24:22.029Z,90.29
2023-01-31T00:25:22.200Z,90.29
2023-01-31T00:26:22.037Z,90.29
2023-01-31T00:27:22.035Z,90.50
2023-01-31T00:28:21.987Z,89.46
2023-01-31T00:29:21.965Z,89.77
2023-01-31T00:30:21.963Z,89.56
2023-01-31T00:31:22.081Z,89.87
2023-01-31T00:32:21.972Z,89.77
2023-01-31T00:33:21.976Z,89.87
2023-01-31T00:34:21.939Z,89.98
2023-01-31T00:35:22.201Z,90.08
2023-01-31T00:36:21.914Z,90.19
2023-01-31T00:37:21.878Z,90.29
2023-01-31T00:38:21.871Z,90.19
2023-01-31T00:39:21.941Z,90.29
2023-01-31T00:40:21.852Z,90.08
2023-01-31T00:41:21.835Z,89.87
2023-01-31T00:42:21.826Z,90.29
2023-01-31T00:43:21.814Z,90.08
2023-01-31T00:44:21.817Z,89.98
2023-01-31T00:45:22.094Z,90.19
2023-01-31T00:46:21.805Z,89.77
2023-01-31T00:47:21.800Z,89.36
2023-01-31T00:48:21.775Z,89.56
2023-01-31T00:49:21.783Z,89.04
2023-01-31T00:50:21.745Z,90.44
2023-01-31T00:51:21.736Z,90.19
2023-01-31T00:52:21.767Z,89.87
2023-01-31T00:53:21.707Z,90.29
2023-01-31T00:54:21.711Z,90.08
2023-01-31T00:55:22.051Z,90.08
2023-01-31T00:56:21.734Z,88.84
2023-01-31T00:57:21.730Z,89.46
2023-01-31T00:58:21.661Z,88.94
2023-01-31T00:59:21.641Z,89.25
2023-01-31T01:00:21.637Z,88.74
2023-01-31T01:01:21.633Z,89.25
2023-01-31T01:02:21.645Z,89.25
2023-01-31T01:03:21.639Z,89.25
2023-01-31T01:04:21.617Z,89.04
2023-01-31T01:05:22.012Z,89.36
2023-01-31T01:06:21.595Z,89.46
2023-01-31T01:07:21.567Z,88.84
2023-01-31T01:08:21.551Z,88.94
2023-01-31T01:09:21.594Z,88.98
2023-01-31T01:10:21.521Z,89.40
2023-01-31T01:11:21.511Z,88.98
2023-01-31T01:12:21.502Z,88.88
2023-01-31T01:13:21.499Z,89.40
2023-01-31T01:14:21.496Z,89.40
2023-01-31T01:15:21.985Z,89.40
2023-01-31T01:16:21.476Z,89.29
2023-01-31T01:17:21.475Z,88.94
2023-01-31T01:18:21.450Z,89.19
2023-01-31T01:19:21.448Z,89.40
2023-01-31T01:20:21.429Z,89.04
2023-01-31T01:21:21.449Z,89.15
2023-01-31T01:22:21.410Z,88.84
2023-01-31T01:23:21.387Z,88.57
2023-01-31T01:24:21.399Z,88.57
2023-01-31T01:25:21.761Z,88.43
2023-01-31T01:26:21.412Z,88.57
2023-01-31T01:27:21.396Z,89.15
2023-01-31T01:28:21.340Z,88.88
2023-01-31T01:29:21.318Z,89.19
2023-01-31T01:30:21.313Z,88.57
2023-01-31T01:31:21.424Z,88.57
2023-01-31T01:32:21.368Z,89.19
2023-01-31T01:33:21.309Z,88.88
2023-01-31T01:34:21.280Z,88.64
2023-01-31T01:35:21.778Z,88.53
2023-01-31T01:36:21.245Z,87.81
2023-01-31T01:37:21.252Z,88.36
2023-01-31T01:38:21.254Z,88.46
2023-01-31T01:39:21.268Z,88.36
2023-01-31T01:40:21.200Z,88.57
2023-01-31T01:41:21.189Z,88.46
2023-01-31T01:42:21.188Z,88.46
2023-01-31T01:43:21.162Z,88.67
2023-01-31T01:44:21.176Z,88.26
2023-01-31T01:45:21.593Z,88.16
2023-01-31T01:46:21.137Z,87.95
2023-01-31T01:47:21.151Z,88.26
2023-01-31T01:48:21.114Z,88.46
2023-01-31T01:49:21.120Z,88.16
2023-01-31T01:50:21.091Z,88.06
2023-01-31T01:51:21.108Z,87.85
2023-01-31T01:52:21.078Z,87.85
2023-01-31T01:53:21.056Z,88.36
2023-01-31T01:54:21.096Z,87.95
2023-01-31T01:55:21.579Z,88.26
2023-01-31T01:56:21.031Z,88.36
2023-01-31T01:57:21.056Z,88.57
2023-01-31T01:58:21.017Z,88.46
2023-01-31T01:59:20.988Z,88.36
2023-01-31T02:00:21.000Z,88.06
2023-01-31T02:01:21.031Z,87.95
2023-01-31T02:02:21.004Z,87.85
2023-01-31T02:03:21.001Z,88.36
2023-01-31T02:04:20.944Z,88.06
2023-01-31T02:05:21.276Z,87.99
2023-01-31T02:06:20.991Z,88.40
2023-01-31T02:07:20.938Z,88.46
2023-01-31T02:08:20.899Z,88.30
2023-01-31T02:09:20.885Z,88.61
2023-01-31T02:10:20.879Z,88.51
2023-01-31T02:11:20.909Z,88.40
2023-01-31T02:12:20.873Z,87.95
2023-01-31T02:13:20.857Z,88.09
2023-01-31T02:14:20.835Z,88.16
2023-01-31T02:15:21.201Z,87.68
2023-01-31T02:16:20.829Z,87.64
2023-01-31T02:17:20.865Z,87.02
2023-01-31T02:18:20.809Z,87.47
2023-01-31T02:19:20.775Z,86.85
2023-01-31T02:20:20.784Z,86.96
2023-01-31T02:21:20.773Z,87.47
2023-01-31T02:22:20.770Z,86.91
2023-01-31T02:23:20.787Z,86.81
2023-01-31T02:24:20.748Z,87.16
2023-01-31T02:25:21.021Z,86.91
2023-01-31T02:26:20.811Z,86.85
2023-01-31T02:27:20.695Z,86.85
2023-01-31T02:28:20.688Z,87.37
2023-01-31T02:29:20.733Z,87.16
2023-01-31T02:30:20.672Z,87.16
2023-01-31T02:31:20.692Z,86.71
2023-01-31T02:32:20.640Z,86.65
2023-01-31T02:33:20.631Z,86.85
2023-01-31T02:34:20.622Z,86.96
2023-01-31T02:35:21.039Z,86.96
2023-01-31T02:36:20.616Z,86.65
2023-01-31T02:37:20.581Z,86.71
2023-01-31T02:38:20.595Z,86.54
2023-01-31T02:39:20.581Z,86.40
2023-01-31T02:40:20.553Z,86.81
2023-01-31T02:41:20.601Z,86.19
2023-01-31T02:42:20.531Z,86.96
2023-01-31T02:43:20.537Z,86.02
2023-01-31T02:44:20.509Z,86.02
2023-01-31T02:45:21.075Z,86.65
2023-01-31T02:46:20.575Z,86.23
2023-01-31T02:47:20.858Z,86.71
2023-01-31T02:48:20.461Z,86.54
2023-01-31T02:49:20.761Z,86.50
2023-01-31T02:50:20.747Z,86.60
2023-01-31T02:51:20.569Z,86.71
2023-01-31T02:52:20.549Z,86.81
2023-01-31T02:53:20.498Z,86.75
2023-01-31T02:54:20.410Z,86.44
2023-01-31T02:55:20.889Z,86.02
2023-01-31T02:56:20.683Z,86.02
2023-01-31T02:57:20.372Z,86.02
2023-01-31T02:58:20.842Z,86.13
2023-01-31T02:59:20.819Z,86.81
2023-01-31T03:00:20.732Z,86.02
2023-01-31T03:01:20.615Z,85.99
2023-01-31T03:02:20.479Z,86.23
2023-01-31T03:03:20.383Z,86.13
2023-01-31T03:04:20.306Z,86.02
2023-01-31T03:05:20.734Z,85.82
2023-01-31T03:06:20.287Z,85.82
2023-01-31T03:07:20.307Z,85.71
2023-01-31T03:08:20.247Z,86.33
2023-01-31T03:09:20.912Z,86.02
2023-01-31T03:10:20.730Z,85.71
2023-01-31T03:11:20.671Z,85.92
2023-01-31T03:12:20.551Z,85.92
2023-01-31T03:13:20.362Z,85.71
2023-01-31T03:14:20.427Z,86.13
2023-01-31T03:15:20.541Z,86.13
2023-01-31T03:16:20.250Z,85.82
2023-01-31T03:17:20.202Z,85.82
2023-01-31T03:18:20.153Z,85.71
2023-01-31T03:19:20.164Z,85.96
2023-01-31T03:20:20.168Z,86.07
2023-01-31T03:21:20.372Z,85.92
2023-01-31T03:22:20.537Z,85.86
2023-01-31T03:23:20.315Z,85.92
2023-01-31T03:24:20.401Z,86.23
2023-01-31T03:25:20.454Z,86.13
2023-01-31T03:26:20.308Z,86.23
2023-01-31T03:27:20.056Z,85.82
2023-01-31T03:28:20.032Z,85.75
2023-01-31T03:29:20.061Z,86.37
2023-01-31T03:30:20.006Z,85.86
2023-01-31T03:31:20.254Z,85.86
2023-01-31T03:32:19.986Z,85.82
2023-01-31T03:33:19.983Z,86.23
2023-01-31T03:34:19.976Z,85.71
2023-01-31T03:35:20.355Z,86.02
2023-01-31T03:36:19.966Z,86.02
2023-01-31T03:37:19.936Z,86.13
2023-01-31T03:38:19.933Z,85.71
2023-01-31T03:39:19.935Z,85.78
2023-01-31T03:40:19.968Z,86.02
2023-01-31T03:41:19.891Z,86.02
2023-01-31T03:42:19.884Z,86.33
2023-01-31T03:43:19.900Z,85.30
2023-01-31T03:44:19.859Z,85.68
2023-01-31T03:45:20.177Z,85.47
2023-01-31T03:46:22.399Z,86.13
2023-01-31T03:47:19.842Z,85.09
2023-01-31T03:48:19.813Z,85.26
2023-01-31T03:49:19.819Z,85.47
2023-01-31T03:50:19.800Z,85.09
2023-01-31T03:51:19.782Z,86.13
2023-01-31T03:52:19.779Z,86.23
2023-01-31T03:53:19.768Z,86.29
2023-01-31T03:54:19.753Z,85.61
2023-01-31T03:55:20.021Z,86.23
2023-01-31T03:56:19.745Z,85.99
2023-01-31T03:57:19.717Z,86.02
2023-01-31T03:58:19.763Z,85.99
2023-01-31T03:59:19.733Z,85.71
2023-01-31T04:00:19.688Z,85.99
2023-01-31T04:01:19.747Z,86.09
2023-01-31T04:02:19.661Z,85.82
2023-01-31T04:03:19.653Z,86.13
2023-01-31T04:04:19.683Z,86.40
2023-01-31T04:05:19.959Z,86.65
2023-01-31T04:06:19.619Z,86.54
2023-01-31T04:07:19.631Z,86.44
2023-01-31T04:08:19.595Z,86.33
2023-01-31T04:09:21.623Z,86.13
2023-01-31T04:10:19.624Z,86.33
2023-01-31T04:11:19.570Z,86.54
2023-01-31T04:12:19.554Z,86.37
2023-01-31T04:13:19.544Z,86.75
2023-01-31T04:14:19.542Z,86.99
2023-01-31T04:15:19.834Z,87.41
2023-01-31T04:16:19.565Z,87.62
2023-01-31T04:17:19.501Z,87.41
2023-01-31T04:18:19.487Z,86.89
2023-01-31T04:19:19.496Z,86.68
2023-01-31T04:20:19.505Z,86.99
2023-01-31T04:21:19.471Z,87.10
2023-01-31T04:22:19.472Z,86.89
2023-01-31T04:23:19.453Z,86.89
2023-01-31T04:24:19.419Z,86.89
2023-01-31T04:25:19.768Z,86.68
2023-01-31T04:26:19.454Z,86.89
2023-01-31T04:27:19.394Z,86.93
2023-01-31T04:28:19.444Z,86.89
2023-01-31T04:29:19.370Z,86.93
2023-01-31T04:30:19.376Z,86.89
2023-01-31T04:31:19.481Z,86.79
2023-01-31T04:32:19.355Z,86.52
2023-01-31T04:33:19.329Z,87.14
2023-01-31T04:34:19.396Z,87.04
2023-01-31T04:35:19.573Z,87.04
2023-01-31T04:36:19.296Z,87.24
2023-01-31T04:37:19.283Z,87.14
2023-01-31T04:38:19.312Z,87.35
2023-01-31T04:39:19.261Z,87.55
2023-01-31T04:40:19.273Z,87.24
2023-01-31T04:41:19.247Z,87.55
2023-01-31T04:42:19.252Z,87.24
2023-01-31T04:43:19.218Z,87.70
2023-01-31T04:44:19.203Z,87.59
2023-01-31T04:45:19.548Z,87.80
2023-01-31T04:46:19.209Z,88.01
2023-01-31T04:47:19.207Z,88.01
2023-01-31T04:48:19.165Z,88.32
2023-01-31T04:49:19.173Z,88.11
2023-01-31T04:50:19.145Z,88.53
2023-01-31T04:51:19.142Z,88.46
2023-01-31T04:52:19.160Z,88.36
2023-01-31T04:53:19.123Z,88.67
2023-01-31T04:54:19.097Z,88.57
2023-01-31T04:55:19.461Z,88.57
2023-01-31T04:56:19.074Z,88.78
2023-01-31T04:57:19.077Z,88.67
2023-01-31T04:58:19.062Z,88.78
2023-01-31T04:59:19.049Z,89.09
2023-01-31T05:00:19.036Z,88.98
2023-01-31T05:01:19.054Z,88.78
2023-01-31T05:02:19.175Z,89.19
2023-01-31T05:03:19.026Z,89.50
2023-01-31T05:04:19.045Z,89.40
2023-01-31T05:05:19.377Z,89.40
2023-01-31T05:06:18.973Z,89.40
2023-01-31T05:07:18.965Z,89.61
2023-01-31T05:08:18.960Z,88.98
2023-01-31T05:09:18.937Z,89.50
2023-01-31T05:10:18.959Z,89.29
2023-01-31T05:11:18.930Z,89.61
2023-01-31T05:12:18.904Z,89.71
2023-01-31T05:13:18.921Z,89.71
2023-01-31T05:14:18.899Z,89.61
2023-01-31T05:15:19.185Z,89.50
2023-01-31T05:16:18.899Z,89.71
2023-01-31T05:17:18.878Z,89.13
2023-01-31T05:18:18.844Z,89.50
2023-01-31T05:19:18.867Z,89.71
2023-01-31T05:20:18.821Z,90.48
2023-01-31T05:21:18.831Z,90.27
2023-01-31T05:22:18.841Z,89.65
2023-01-31T05:23:18.791Z,90.48
2023-01-31T05:24:18.773Z,90.58
2023-01-31T05:25:18.937Z,90.69
2023-01-31T05:26:18.792Z,90.31
2023-01-31T05:27:18.755Z,90.20
2023-01-31T05:28:18.796Z,90.41
2023-01-31T05:29:18.737Z,90.10
2023-01-31T05:30:18.708Z,90.27
2023-01-31T05:31:18.838Z,90.20
2023-01-31T05:32:18.687Z,90.20
2023-01-31T05:33:18.690Z,89.86
2023-01-31T05:34:18.736Z,90.06
2023-01-31T05:35:19.237Z,90.37
2023-01-31T05:36:18.637Z,89.96
2023-01-31T05:37:18.666Z,90.06
2023-01-31T05:38:18.620Z,90.00
2023-01-31T05:39:18.613Z,90.10
2023-01-31T05:40:18.650Z,90.20
2023-01-31T05:41:18.616Z,90.00
2023-01-31T05:42:18.605Z,90.62
2023-01-31T05:43:18.572Z,90.72
2023-01-31T05:44:18.556Z,90.62
2023-01-31T05:45:18.918Z,90.83
2023-01-31T05:46:18.571Z,90.62
2023-01-31T05:47:18.543Z,90.83
2023-01-31T05:48:18.514Z,91.60
2023-01-31T05:49:18.502Z,91.45
2023-01-31T05:50:18.489Z,91.49
2023-01-31T05:51:18.527Z,91.35
2023-01-31T05:52:18.498Z,91.66
2023-01-31T05:53:18.466Z,90.97
2023-01-31T05:54:18.467Z,91.35
2023-01-31T05:55:18.770Z,91.39
2023-01-31T05:56:18.425Z,91.03
2023-01-31T05:57:18.422Z,91.35
2023-01-31T05:58:18.446Z,91.18
2023-01-31T05:59:18.416Z,91.18
2023-01-31T06:00:18.395Z,91.08
2023-01-31T06:01:18.373Z,90.93
2023-01-31T06:02:18.473Z,91.03
2023-01-31T06:03:18.403Z,91.14
2023-01-31T06:04:18.423Z,91.18
2023-01-31T06:05:18.736Z,91.08
2023-01-31T06:06:18.316Z,91.24
2023-01-31T06:07:18.327Z,91.39
2023-01-31T06:08:18.323Z,91.24
2023-01-31T06:09:18.293Z,91.14
2023-01-31T06:10:20.816Z,91.45
2023-01-31T06:11:18.263Z,91.45
2023-01-31T06:12:18.270Z,91.03
2023-01-31T06:13:18.268Z,91.45
2023-01-31T06:14:18.231Z,91.91
2023-01-31T06:15:18.718Z,91.39
2023-01-31T06:16:18.320Z,91.49
2023-01-31T06:17:18.217Z,91.24
2023-01-31T06:18:18.209Z,91.24
2023-01-31T06:19:18.181Z,91.60
2023-01-31T06:20:18.192Z,91.86
2023-01-31T06:21:18.176Z,92.07
2023-01-31T06:22:18.205Z,91.86
2023-01-31T06:23:18.172Z,91.45
2023-01-31T06:24:18.131Z,91.24
2023-01-31T06:25:18.715Z,91.03
2023-01-31T06:26:18.162Z,91.35
2023-01-31T06:27:18.091Z,91.03
2023-01-31T06:28:18.118Z,90.93
2023-01-31T06:29:18.090Z,91.31
2023-01-31T06:30:18.087Z,91.35
2023-01-31T06:31:18.196Z,91.14
2023-01-31T06:32:18.050Z,90.93
2023-01-31T06:33:18.041Z,91.35
2023-01-31T06:34:18.051Z,91.10
2023-01-31T06:35:18.571Z,91.10
2023-01-31T06:36:19.446Z,90.79
2023-01-31T06:37:17.995Z,90.41
2023-01-31T06:38:17.973Z,90.83
2023-01-31T06:39:17.984Z,90.62
2023-01-31T06:40:17.967Z,90.72
2023-01-31T06:41:17.944Z,90.20
2023-01-31T06:42:17.932Z,90.10
2023-01-31T06:43:17.927Z,89.94
2023-01-31T06:44:17.921Z,90.35
2023-01-31T06:45:18.044Z,90.66
2023-01-31T06:46:17.945Z,90.77
2023-01-31T06:47:17.878Z,90.56
2023-01-31T06:48:17.863Z,91.49
2023-01-31T06:49:17.856Z,91.60
2023-01-31T06:50:17.843Z,91.60
2023-01-31T06:51:17.872Z,91.18
2023-01-31T06:52:17.836Z,91.43
2023-01-31T06:53:17.807Z,91.43
2023-01-31T06:54:17.796Z,91.39
2023-01-31T06:55:17.962Z,92.05
2023-01-31T06:56:17.784Z,92.01
2023-01-31T06:57:17.803Z,91.60
2023-01-31T06:58:20.589Z,91.95
2023-01-31T06:59:17.750Z,91.74
2023-01-31T07:00:17.737Z,91.91
2023-01-31T07:01:17.791Z,92.22
2023-01-31T07:02:17.713Z,92.32
2023-01-31T07:03:17.701Z,92.63
2023-01-31T07:04:17.739Z,92.74
2023-01-31T07:05:17.962Z,93.05
2023-01-31T07:06:17.673Z,92.07
2023-01-31T07:07:17.665Z,92.32
2023-01-31T07:08:17.675Z,92.69
2023-01-31T07:09:17.634Z,92.49
2023-01-31T07:10:17.700Z,92.38
2023-01-31T07:11:17.637Z,92.18
2023-01-31T07:12:17.615Z,92.38
2023-01-31T07:13:17.599Z,92.07
2023-01-31T07:14:17.609Z,92.07
2023-01-31T07:15:17.788Z,92.07
2023-01-31T07:16:17.588Z,91.45
2023-01-31T07:17:17.585Z,91.55
2023-01-31T07:18:17.563Z,91.76
2023-01-31T07:19:17.534Z,91.97
2023-01-31T07:20:17.538Z,91.97
2023-01-31T07:21:17.514Z,91.97
2023-01-31T07:22:17.548Z,91.86
2023-01-31T07:23:17.560Z,92.07
2023-01-31T07:24:17.493Z,91.91
2023-01-31T07:25:17.830Z,91.97
2023-01-31T07:26:17.527Z,91.86
2023-01-31T07:27:17.463Z,91.86
2023-01-31T07:28:17.441Z,91.70
2023-01-31T07:29:17.548Z,91.70
2023-01-31T07:30:17.415Z,91.91
2023-01-31T07:31:17.462Z,92.22
2023-01-31T07:32:17.388Z,91.91
2023-01-31T07:33:17.383Z,92.32
2023-01-31T07:34:17.374Z,92.43
2023-01-31T07:35:17.459Z,92.63
2023-01-31T07:36:17.361Z,93.20
2023-01-31T07:37:17.337Z,92.53
2023-01-31T07:38:17.327Z,93.16
2023-01-31T07:39:17.370Z,92.32
2023-01-31T07:40:17.309Z,92.36
2023-01-31T07:41:17.366Z,93.05
2023-01-31T07:42:17.296Z,92.63
2023-01-31T07:43:17.285Z,92.84
2023-01-31T07:44:17.267Z,92.94
2023-01-31T07:45:23.332Z,92.43
2023-01-31T07:46:18.317Z,92.43
2023-01-31T07:47:17.259Z,92.74
2023-01-31T07:48:17.220Z,93.16
2023-01-31T07:49:17.208Z,92.84
2023-01-31T07:50:17.226Z,93.05
2023-01-31T07:51:17.183Z,92.84
2023-01-31T07:52:17.189Z,93.37
2023-01-31T07:53:17.221Z,93.05
2023-01-31T07:54:17.175Z,93.22
2023-01-31T07:55:17.142Z,93.22
2023-01-31T07:56:17.132Z,93.01
2023-01-31T07:57:17.132Z,93.32
2023-01-31T07:58:17.105Z,93.12
2023-01-31T07:59:17.221Z,92.80
2023-01-31T08:00:17.082Z,92.66
2023-01-31T08:01:17.104Z,92.24
2023-01-31T08:02:17.090Z,92.80
2023-01-31T08:03:17.075Z,92.38
2023-01-31T08:04:22.346Z,92.18
2023-01-31T08:05:18.621Z,92.24
2023-01-31T08:06:17.044Z,92.24
2023-01-31T08:07:17.007Z,92.35
2023-01-31T08:08:17.002Z,92.24
2023-01-31T08:09:16.986Z,92.24
2023-01-31T08:10:16.982Z,92.03
2023-01-31T08:11:17.048Z,92.61
2023-01-31T08:12:16.974Z,92.45
2023-01-31T08:13:16.944Z,92.35
2023-01-31T08:14:16.994Z,92.35
2023-01-31T08:15:16.979Z,92.10
2023-01-31T08:16:16.915Z,92.14
2023-01-31T08:17:16.966Z,92.72
2023-01-31T08:18:16.929Z,92.82
2023-01-31T08:19:16.889Z,92.82
2023-01-31T08:20:16.901Z,92.61
2023-01-31T08:21:16.861Z,92.30
2023-01-31T08:22:16.851Z,92.10
2023-01-31T08:23:16.915Z,91.95
2023-01-31T08:24:16.826Z,91.85
2023-01-31T08:25:19.546Z,91.95
2023-01-31T08:26:16.845Z,91.43
2023-01-31T08:27:16.832Z,91.74
2023-01-31T08:28:16.794Z,91.49
2023-01-31T08:29:16.828Z,90.77
2023-01-31T08:30:16.791Z,90.77
2023-01-31T08:31:16.959Z,90.45
2023-01-31T08:32:16.843Z,90.04
2023-01-31T08:33:16.746Z,90.56
2023-01-31T08:34:16.737Z,89.31
2023-01-31T08:35:16.778Z,89.83
2023-01-31T08:36:16.695Z,89.28
2023-01-31T08:37:18.429Z,89.58
2023-01-31T08:38:16.936Z,88.76
2023-01-31T08:39:16.667Z,88.76
2023-01-31T08:40:16.657Z,88.96
2023-01-31T08:41:16.698Z,88.34
2023-01-31T08:42:16.630Z,89.17
2023-01-31T08:43:16.635Z,89.34
2023-01-31T08:44:18.031Z,89.03
2023-01-31T08:45:16.611Z,88.92
2023-01-31T08:46:16.721Z,89.34
2023-01-31T08:47:17.528Z,89.03
2023-01-31T08:48:16.562Z,89.13
2023-01-31T08:49:16.589Z,89.03
2023-01-31T08:50:27.135Z,89.34
2023-01-31T08:51:17.583Z,89.13
2023-01-31T08:52:16.554Z,89.13
2023-01-31T08:53:16.503Z,89.34
2023-01-31T08:54:16.521Z,89.23
2023-01-31T08:55:16.485Z,89.44
2023-01-31T08:56:16.474Z,89.34
2023-01-31T08:57:16.508Z,89.13
2023-01-31T08:58:16.464Z,89.09
2023-01-31T08:59:16.455Z,89.09
2023-01-31T09:00:16.435Z,89.13
2023-01-31T09:01:17.066Z,89.29
2023-01-31T09:02:16.452Z,88.88
2023-01-31T09:03:16.414Z,88.88
2023-01-31T09:04:16.411Z,88.26
2023-01-31T09:05:16.381Z,87.85
2023-01-31T09:06:16.390Z,88.06
2023-01-31T09:07:16.357Z,88.06
2023-01-31T09:08:16.411Z,88.06
2023-01-31T09:09:16.337Z,87.12
2023-01-31T09:10:16.327Z,87.12
2023-01-31T09:11:16.357Z,86.57
2023-01-31T09:12:16.325Z,86.77
2023-01-31T09:13:16.289Z,86.98
2023-01-31T09:14:16.342Z,86.88
2023-01-31T09:15:16.273Z,86.46
2023-01-31T09:16:16.265Z,86.46
2023-01-31T09:17:16.313Z,86.46
2023-01-31T09:18:16.238Z,86.36
2023-01-31T09:19:16.272Z,86.67
2023-01-31T09:20:16.276Z,86.77
2023-01-31T09:21:16.221Z,86.77
2023-01-31T09:22:16.213Z,86.83
2023-01-31T09:23:16.194Z,86.73
2023-01-31T09:24:16.175Z,86.42
2023-01-31T09:25:16.167Z,86.67
2023-01-31T09:26:16.256Z,86.94
2023-01-31T09:27:16.163Z,86.94
2023-01-31T09:28:17.016Z,86.73
2023-01-31T09:29:16.154Z,86.73
2023-01-31T09:30:16.116Z,86.52
2023-01-31T09:31:16.207Z,86.63
2023-01-31T09:32:16.247Z,86.32
2023-01-31T09:33:16.078Z,86.52
2023-01-31T09:34:16.083Z,86.73
2023-01-31T09:35:16.069Z,85.60
2023-01-31T09:36:16.052Z,86.11
2023-01-31T09:37:16.055Z,86.01
2023-01-31T09:38:16.074Z,85.70
2023-01-31T09:39:16.011Z,85.60
2023-01-31T09:40:15.999Z,85.49
2023-01-31T09:41:16.020Z,85.24
2023-01-31T09:42:16.499Z,84.45
2023-01-31T09:43:15.968Z,85.14
2023-01-31T09:44:16.021Z,85.45
2023-01-31T09:45:15.976Z,85.04
2023-01-31T09:46:15.934Z,85.04
2023-01-31T09:47:15.939Z,84.73
2023-01-31T09:48:15.910Z,85.04
2023-01-31T09:49:15.904Z,84.63
2023-01-31T09:50:15.942Z,84.83
2023-01-31T09:51:15.905Z,84.48
2023-01-31T09:52:15.893Z,84.89
2023-01-31T09:53:15.877Z,84.89
2023-01-31T09:54:15.899Z,84.59
2023-01-31T09:55:15.837Z,84.48
2023-01-31T09:56:15.842Z,85.00
2023-01-31T09:57:15.829Z,84.89
2023-01-31T09:58:16.507Z,85.21
2023-01-31T09:59:16.549Z,84.79
2023-01-31T10:00:15.814Z,84.23
2023-01-31T10:01:15.885Z,84.65
2023-01-31T10:02:15.810Z,84.75
2023-01-31T10:03:15.743Z,84.65
2023-01-31T10:04:15.829Z,85.17
2023-01-31T10:05:15.741Z,84.13
2023-01-31T10:06:15.733Z,84.86
2023-01-31T10:07:15.725Z,84.55
2023-01-31T10:08:15.713Z,84.96
2023-01-31T10:09:15.692Z,84.65
2023-01-31T10:10:15.675Z,84.75
2023-01-31T10:11:15.688Z,84.30
2023-01-31T10:12:16.630Z,83.89
2023-01-31T10:13:15.677Z,85.06
2023-01-31T10:14:17.000Z,84.72
2023-01-31T10:15:17.003Z,84.30
2023-01-31T10:16:17.495Z,84.34
2023-01-31T10:17:18.042Z,83.89
2023-01-31T10:18:16.500Z,83.89
2023-01-31T10:19:17.497Z,83.78
2023-01-31T10:20:16.573Z,84.09
2023-01-31T10:21:15.556Z,84.20
2023-01-31T10:22:15.553Z,83.68
2023-01-31T10:23:16.065Z,83.99
2023-01-31T10:24:17.008Z,84.20
2023-01-31T10:25:15.537Z,84.16
2023-01-31T10:26:15.629Z,83.54
2023-01-31T10:27:15.492Z,83.23
2023-01-31T10:28:15.483Z,83.64
2023-01-31T10:29:16.016Z,83.23
2023-01-31T10:30:15.462Z,83.95
2023-01-31T10:31:16.037Z,83.64
2023-01-31T10:32:15.438Z,83.54
2023-01-31T10:33:15.452Z,83.64
2023-01-31T10:34:17.003Z,83.23
2023-01-31T10:35:15.407Z,83.64
2023-01-31T10:36:15.422Z,83.23
2023-01-31T10:37:15.389Z,83.13
2023-01-31T10:38:15.374Z,83.23
2023-01-31T10:39:15.397Z,83.29
2023-01-31T10:40:15.349Z,83.23
2023-01-31T10:41:15.355Z,83.29
2023-01-31T10:42:15.338Z,83.19
2023-01-31T10:43:15.323Z,83.29
2023-01-31T10:44:15.311Z,83.81
2023-01-31T10:45:15.320Z,83.29
2023-01-31T10:46:15.321Z,82.98
2023-01-31T10:47:15.294Z,83.09
2023-01-31T10:48:15.280Z,83.29
2023-01-31T10:49:15.492Z,82.89
2023-01-31T10:50:15.248Z,83.09
2023-01-31T10:51:15.268Z,83.91
2023-01-31T10:52:15.223Z,83.09
2023-01-31T10:53:15.209Z,83.19
2023-01-31T10:54:15.200Z,82.98
2023-01-31T10:55:15.240Z,83.15
2023-01-31T10:56:15.187Z,82.54
2023-01-31T10:57:15.199Z,83.05
2023-01-31T10:58:15.170Z,82.33
2023-01-31T10:59:15.163Z,83.15
2023-01-31T11:00:15.137Z,82.84
2023-01-31T11:01:15.235Z,83.22
2023-01-31T11:02:15.179Z,83.05
2023-01-31T11:03:15.126Z,82.84
2023-01-31T11:04:15.100Z,82.60
2023-01-31T11:05:15.102Z,82.95
2023-01-31T11:06:15.072Z,82.84
2023-01-31T11:07:15.076Z,82.40
2023-01-31T11:08:15.050Z,82.54
2023-01-31T11:09:15.045Z,82.40
2023-01-31T11:10:15.022Z,82.40
2023-01-31T11:11:15.028Z,82.84
2023-01-31T11:12:15.019Z,83.15
2023-01-31T11:13:14.991Z,83.15
2023-01-31T11:14:15.005Z,83.56
2023-01-31T11:15:14.987Z,83.15
2023-01-31T11:16:15.049Z,83.22
2023-01-31T11:17:15.014Z,82.81
2023-01-31T11:18:14.947Z,83.15
2023-01-31T11:19:14.923Z,82.74
2023-01-31T11:20:14.954Z,82.91
2023-01-31T11:21:14.936Z,83.12
2023-01-31T11:22:14.891Z,83.15
2023-01-31T11:23:14.908Z,82.91
2023-01-31T11:24:14.875Z,83.12
2023-01-31T11:25:14.864Z,83.12
2023-01-31T11:26:14.924Z,82.50
2023-01-31T11:27:14.860Z,82.81
2023-01-31T11:28:14.828Z,83.32
2023-01-31T11:29:14.823Z,82.40
2023-01-31T11:30:14.848Z,83.42
2023-01-31T11:31:14.816Z,83.12
2023-01-31T11:32:14.797Z,82.70
2023-01-31T11:33:14.770Z,83.12
2023-01-31T11:34:14.784Z,83.22
2023-01-31T11:35:14.764Z,83.01
2023-01-31T11:36:14.743Z,83.22
2023-01-31T11:37:14.752Z,82.97
2023-01-31T11:38:14.736Z,82.87
2023-01-31T11:39:14.718Z,83.28
2023-01-31T11:40:14.710Z,82.77
2023-01-31T11:41:14.690Z,82.97
2023-01-31T11:42:14.680Z,82.15
2023-01-31T11:43:14.701Z,82.05
2023-01-31T11:44:14.667Z,82.15
2023-01-31T11:45:14.651Z,82.21
2023-01-31T11:46:14.779Z,82.05
2023-01-31T11:47:14.621Z,81.95
2023-01-31T11:48:14.634Z,82.15
2023-01-31T11:49:14.630Z,81.95
2023-01-31T11:50:14.603Z,81.84
2023-01-31T11:51:14.583Z,81.53
2023-01-31T11:52:14.568Z,81.81
2023-01-31T11:53:14.561Z,82.42
2023-01-31T11:54:14.557Z,82.53
2023-01-31T11:55:14.554Z,81.39
2023-01-31T11:56:14.551Z,80.77
2023-01-31T11:57:14.584Z,82.01
2023-01-31T11:58:14.511Z,81.81
2023-01-31T11:59:14.540Z,80.71
2023-01-31T12:00:14.548Z,81.23
2023-01-31T12:01:14.487Z,81.70
2023-01-31T12:02:14.503Z,82.01
2023-01-31T12:03:14.493Z,81.70
2023-01-31T12:04:14.581Z,81.70
2023-01-31T12:05:14.459Z,82.53
2023-01-31T12:06:14.417Z,82.53
2023-01-31T12:07:14.405Z,82.97
2023-01-31T12:08:14.412Z,82.77
2023-01-31T12:09:14.391Z,83.59
2023-01-31T12:10:14.389Z,83.49
2023-01-31T12:11:14.375Z,82.77
2023-01-31T12:12:14.369Z,83.70
2023-01-31T12:13:18.822Z,82.91
2023-01-31T12:14:14.363Z,83.70
2023-01-31T12:15:14.343Z,83.07
2023-01-31T12:16:14.342Z,83.28
2023-01-31T12:17:14.355Z,83.49
2023-01-31T12:18:14.281Z,83.18
2023-01-31T12:19:14.280Z,83.63
2023-01-31T12:20:27.160Z,83.22
2023-01-31T12:21:15.262Z,82.91
2023-01-31T12:22:14.245Z,82.91
2023-01-31T12:23:14.235Z,83.01
2023-01-31T12:24:14.242Z,83.07
2023-01-31T12:25:14.225Z,83.32
2023-01-31T12:26:14.256Z,83.12
2023-01-31T12:27:14.192Z,82.70
2023-01-31T12:28:14.198Z,83.12
2023-01-31T12:29:14.174Z,82.81
2023-01-31T12:30:14.166Z,83.32
2023-01-31T12:31:14.292Z,82.60
2023-01-31T12:32:14.189Z,83.32
2023-01-31T12:33:14.141Z,83.07
2023-01-31T12:34:14.110Z,83.01
2023-01-31T12:35:14.100Z,82.81
2023-01-31T12:36:14.091Z,82.40
2023-01-31T12:37:14.083Z,83.12
2023-01-31T12:38:14.118Z,83.94
2023-01-31T12:39:14.101Z,83.01
2023-01-31T12:40:24.627Z,83.63
2023-01-31T12:41:15.040Z,83.01
2023-01-31T12:42:14.039Z,83.32
2023-01-31T12:43:14.023Z,83.90
2023-01-31T12:44:14.026Z,83.01
2023-01-31T12:45:14.037Z,82.67
2023-01-31T12:46:14.116Z,82.81
2023-01-31T12:47:14.008Z,83.12
2023-01-31T12:48:13.960Z,83.32
2023-01-31T12:49:13.950Z,83.12
2023-01-31T12:50:13.967Z,82.81
2023-01-31T12:51:14.006Z,82.81
2023-01-31T12:52:13.922Z,83.07